createdAt,value
2018-03-02T00:02:26.106Z,40.10
2018-03-02T00:04:53.709Z,40.10
2018-03-02T00:07:22.052Z,40.10
2018-03-02T00:09:49.656Z,40.10
2018-03-02T00:12:17.992Z,40.30
2018-03-02T00:14:45.581Z,40.30
2018-03-02T00:17:13.163Z,40.80
2018-03-02T00:19:40.757Z,40.30
2018-03-02T00:22:08.354Z,40.10
2018-03-02T00:24:35.921Z,40.10
2018-03-02T00:27:03.566Z,39.80
2018-03-02T00:29:31.144Z,39.80
2018-03-02T00:31:58.741Z,39.90
2018-03-02T00:34:26.312Z,39.60
2018-03-02T00:36:53.931Z,39.70
2018-03-02T00:39:21.506Z,39.90
2018-03-02T00:41:49.104Z,39.60
2018-03-02T00:44:16.679Z,39.60
2018-03-02T00:46:44.265Z,39.60
2018-03-02T00:49:11.829Z,39.70
2018-03-02T00:51:39.416Z,39.70
2018-03-02T00:54:06.989Z,39.80
2018-03-02T00:56:34.580Z,39.90
2018-03-02T00:59:02.158Z,39.70
2018-03-02T01:01:29.784Z,39.70
2018-03-02T01:03:57.354Z,39.80
2018-03-02T01:06:25.001Z,39.70
2018-03-02T01:08:52.597Z,39.90
2018-03-02T01:11:20.964Z,40.10
2018-03-02T01:13:48.571Z,40.10
2018-03-02T01:16:16.161Z,40.00
2018-03-02T01:18:43.733Z,40.20
2018-03-02T01:21:11.322Z,40.20
2018-03-02T01:23:40.363Z,40.40
2018-03-02T01:26:07.964Z,40.30
2018-03-02T01:28:35.529Z,40.30
2018-03-02T01:31:03.890Z,40.60
2018-03-02T01:33:32.225Z,41.20
2018-03-02T01:35:59.824Z,41.10
2018-03-02T01:38:27.405Z,40.80
2018-03-02T01:40:54.977Z,40.60
2018-03-02T01:43:22.565Z,40.20
2018-03-02T01:45:50.146Z,40.20
2018-03-02T01:48:17.758Z,40.30
2018-03-02T01:50:45.324Z,39.90
2018-03-02T01:53:12.930Z,40.00
2018-03-02T01:55:40.509Z,39.90
2018-03-02T01:58:08.105Z,39.70
2018-03-02T02:00:35.711Z,39.70
2018-03-02T02:03:03.314Z,39.80
2018-03-02T02:05:30.894Z,39.10
2018-03-02T02:07:58.493Z,39.40
2018-03-02T02:10:26.070Z,39.40
2018-03-02T02:12:53.663Z,39.10
2018-03-02T02:15:21.229Z,38.80
2018-03-02T02:17:48.818Z,38.80
2018-03-02T02:20:16.385Z,39.10
2018-03-02T02:22:43.978Z,38.50
2018-03-02T02:25:11.545Z,38.80
2018-03-02T02:27:39.141Z,38.90
2018-03-02T02:30:06.714Z,39.20
2018-03-02T02:32:34.311Z,39.00
2018-03-02T02:35:02.643Z,39.30
2018-03-02T02:37:30.237Z,39.30
2018-03-02T02:39:58.572Z,39.20
2018-03-02T02:42:26.171Z,39.20
2018-03-02T02:44:53.745Z,39.10
2018-03-02T02:47:22.086Z,39.30
2018-03-02T02:49:49.673Z,39.30
2018-03-02T02:52:17.246Z,39.20
2018-03-02T02:54:44.838Z,39.10
2018-03-02T02:57:12.415Z,38.90
2018-03-02T02:59:40.014Z,38.90
2018-03-02T03:02:08.346Z,39.10
2018-03-02T03:04:35.945Z,39.10
2018-03-02T03:07:03.513Z,39.30
2018-03-02T03:09:31.117Z,39.10
2018-03-02T03:11:58.727Z,39.50
2018-03-02T03:14:26.773Z,39.60
2018-03-02T03:16:54.341Z,39.60
2018-03-02T03:19:22.688Z,39.70
2018-03-02T03:21:50.249Z,39.10
2018-03-02T03:24:17.842Z,39.40
2018-03-02T03:26:45.422Z,39.40
2018-03-02T03:29:13.014Z,39.60
2018-03-02T03:31:40.587Z,39.70
2018-03-02T03:34:08.177Z,40.00
2018-03-02T03:36:36.513Z,39.60
2018-03-02T03:39:04.100Z,39.60
2018-03-02T03:41:31.669Z,39.60
2018-03-02T03:44:00.026Z,39.90
2018-03-02T03:46:28.042Z,39.90
2018-03-02T03:48:55.711Z,39.80
2018-03-02T03:51:23.302Z,39.30
2018-03-02T03:53:50.875Z,39.50
2018-03-02T03:56:18.465Z,39.80
2018-03-02T03:58:46.029Z,39.30
2018-03-02T04:01:15.311Z,40.20
2018-03-02T04:03:42.880Z,39.60
2018-03-02T04:06:10.461Z,39.70
2018-03-02T04:08:38.026Z,39.40
2018-03-02T04:11:05.617Z,39.30
2018-03-02T04:13:33.183Z,39.50
2018-03-02T04:16:00.815Z,39.70
2018-03-02T04:18:28.376Z,39.80
2018-03-02T04:20:55.969Z,39.80
2018-03-02T04:23:23.537Z,40.10
2018-03-02T04:25:51.159Z,39.90
2018-03-02T04:28:18.753Z,40.00
2018-03-02T04:30:46.349Z,40.20
2018-03-02T04:33:13.931Z,40.20
2018-03-02T04:35:41.513Z,40.20
2018-03-02T04:38:09.086Z,40.00
2018-03-02T04:40:36.700Z,39.80
2018-03-02T04:43:04.300Z,39.60
2018-03-02T04:45:31.911Z,39.90
2018-03-02T04:47:59.544Z,40.50
2018-03-02T04:50:27.117Z,39.90
2018-03-02T04:52:54.693Z,40.10
2018-03-02T04:55:22.294Z,40.10
2018-03-02T04:57:49.869Z,40.20
2018-03-02T05:00:17.472Z,40.50
2018-03-02T05:02:45.063Z,40.30
2018-03-02T05:05:12.653Z,40.20
2018-03-02T05:07:40.266Z,40.40
2018-03-02T05:10:07.848Z,40.50
2018-03-02T05:12:35.450Z,40.90
2018-03-02T05:15:03.906Z,40.90
2018-03-02T05:17:31.490Z,40.60
2018-03-02T05:19:59.074Z,40.30
2018-03-02T05:22:26.673Z,40.60
2018-03-02T05:24:54.530Z,40.70
2018-03-02T05:27:22.178Z,40.80
2018-03-02T05:29:49.750Z,40.70
2018-03-02T05:32:17.370Z,40.80
2018-03-02T05:34:44.933Z,40.60
2018-03-02T05:37:12.533Z,40.60
2018-03-02T05:39:40.132Z,40.60
2018-03-02T05:42:08.480Z,40.30
2018-03-02T05:44:36.053Z,40.30
2018-03-02T05:47:03.656Z,40.30
2018-03-02T05:49:31.225Z,40.50
2018-03-02T05:51:58.832Z,40.70
2018-03-02T05:54:27.163Z,40.80
2018-03-02T05:56:54.797Z,40.70
2018-03-02T05:59:22.393Z,40.80
2018-03-02T06:01:49.994Z,40.80
2018-03-02T06:04:18.354Z,40.50
2018-03-02T06:06:45.944Z,40.50
2018-03-02T06:09:13.524Z,40.80
2018-03-02T06:11:41.136Z,41.10
2018-03-02T06:14:08.729Z,40.80
2018-03-02T06:16:36.348Z,40.80
2018-03-02T06:19:03.969Z,40.90
2018-03-02T06:21:31.537Z,40.90
2018-03-02T06:23:59.149Z,41.00
2018-03-02T06:26:27.485Z,40.90
2018-03-02T06:28:55.084Z,40.80
2018-03-02T06:31:22.663Z,41.20
2018-03-02T06:33:51.034Z,40.90
2018-03-02T06:36:18.614Z,40.90
2018-03-02T06:38:46.249Z,40.70
2018-03-02T06:41:13.827Z,40.90
2018-03-02T06:43:41.437Z,41.20
2018-03-02T06:46:09.017Z,41.20
2018-03-02T06:48:37.389Z,41.20
2018-03-02T06:51:05.733Z,41.70
2018-03-02T06:53:33.340Z,41.30
2018-03-02T06:56:01.692Z,41.00
2018-03-02T06:58:29.306Z,41.00
2018-03-02T07:00:56.893Z,41.10
2018-03-02T07:03:24.485Z,41.20
2018-03-02T07:05:52.062Z,41.10
2018-03-02T07:08:19.658Z,40.90
2018-03-02T07:10:47.241Z,40.90
2018-03-02T07:13:14.838Z,41.10
2018-03-02T07:15:42.413Z,41.10
2018-03-02T07:18:10.018Z,41.10
2018-03-02T07:20:37.585Z,41.30
2018-03-02T07:23:05.182Z,41.50
2018-03-02T07:25:32.783Z,41.40
2018-03-02T07:28:01.116Z,41.20
2018-03-02T07:30:28.764Z,41.20
2018-03-02T07:32:57.923Z,41.10
2018-03-02T07:35:25.514Z,41.00
2018-03-02T07:37:53.854Z,41.20
2018-03-02T07:40:21.455Z,41.10
2018-03-02T07:42:49.017Z,40.90
2018-03-02T07:45:16.600Z,41.00
2018-03-02T07:47:44.165Z,41.40
2018-03-02T07:50:11.757Z,41.30
2018-03-02T07:52:39.334Z,41.30
2018-03-02T07:55:06.978Z,41.20
2018-03-02T07:57:34.550Z,41.00
2018-03-02T08:00:02.225Z,40.80
2018-03-02T08:02:30.557Z,40.80
2018-03-02T08:04:58.150Z,40.80
2018-03-02T08:07:25.717Z,40.80
2018-03-02T08:09:53.318Z,40.70
2018-03-02T08:12:20.885Z,40.50
2018-03-02T08:14:48.937Z,40.50
2018-03-02T08:17:16.506Z,40.70
2018-03-02T08:19:44.102Z,40.90
2018-03-02T08:22:11.675Z,40.80
2018-03-02T08:24:39.278Z,41.00
2018-03-02T08:27:06.842Z,41.20
2018-03-02T08:29:34.439Z,41.10
2018-03-02T08:32:02.005Z,41.30
2018-03-02T08:34:29.600Z,40.90
2018-03-02T08:36:57.167Z,40.80
2018-03-02T08:39:24.732Z,40.80
2018-03-02T08:41:52.322Z,40.80
2018-03-02T08:44:19.898Z,40.70
2018-03-02T08:46:47.490Z,40.80
2018-03-02T08:49:15.061Z,40.60
2018-03-02T08:51:42.649Z,40.50
2018-03-02T08:54:10.213Z,40.70
2018-03-02T08:56:37.800Z,40.40
2018-03-02T08:59:05.360Z,40.10
2018-03-02T09:01:32.950Z,40.40
2018-03-02T09:04:00.517Z,40.70
2018-03-02T09:06:28.111Z,40.50
2018-03-02T09:08:55.678Z,40.10
2018-03-02T09:11:23.274Z,40.20
2018-03-02T09:13:50.841Z,40.50
2018-03-02T09:16:19.203Z,40.50
2018-03-02T09:18:47.628Z,40.50
2018-03-02T09:21:15.212Z,40.40
2018-03-02T09:23:43.122Z,40.50
2018-03-02T09:26:11.477Z,40.40
2018-03-02T09:28:39.048Z,40.30
2018-03-02T09:31:07.405Z,39.20
2018-03-02T09:33:34.965Z,39.30
2018-03-02T09:36:02.557Z,39.10
2018-03-02T09:38:30.898Z,39.00
2018-03-02T09:40:58.496Z,38.90
2018-03-02T09:43:26.061Z,38.90
2018-03-02T09:45:53.841Z,38.40
2018-03-02T09:48:22.228Z,39.20
2018-03-02T09:50:49.793Z,38.70
2018-03-02T09:53:17.382Z,39.00
2018-03-02T09:55:44.950Z,38.50
2018-03-02T09:58:12.540Z,38.20
2018-03-02T10:00:40.198Z,37.70
2018-03-02T10:03:07.801Z,37.90
2018-03-02T10:05:35.365Z,37.60
2018-03-02T10:08:03.049Z,37.60
2018-03-02T10:10:30.649Z,38.00
2018-03-02T10:12:58.240Z,37.90
2018-03-02T10:15:26.600Z,38.30
2018-03-02T10:17:54.201Z,37.70
2018-03-02T10:20:24.674Z,37.30
2018-03-02T10:22:52.270Z,37.50
2018-03-02T10:25:19.837Z,37.60
2018-03-02T10:27:47.434Z,37.70
2018-03-02T10:30:16.574Z,37.60
2018-03-02T10:32:44.186Z,37.50
2018-03-02T10:35:12.522Z,37.10
2018-03-02T10:37:40.112Z,37.10
2018-03-02T10:40:07.683Z,37.00
2018-03-02T10:42:36.043Z,37.00
2018-03-02T10:45:03.623Z,36.90
2018-03-02T10:47:31.218Z,36.70
2018-03-02T10:49:58.790Z,36.80
2018-03-02T10:52:26.395Z,36.50
2018-03-02T10:54:54.728Z,36.30
2018-03-02T10:57:22.334Z,36.20
2018-03-02T10:59:50.672Z,36.80
2018-03-02T11:02:21.029Z,36.80
2018-03-02T11:04:49.380Z,37.00
2018-03-02T11:07:16.944Z,36.90
2018-03-02T11:09:44.550Z,36.70
2018-03-02T11:12:12.121Z,36.30
2018-03-02T11:14:39.730Z,36.50
2018-03-02T11:17:07.298Z,36.60
2018-03-02T11:19:35.672Z,37.10
2018-03-02T11:22:04.011Z,37.60
2018-03-02T11:24:31.614Z,37.60
2018-03-02T11:26:59.182Z,37.60
2018-03-02T11:29:27.542Z,37.20
2018-03-02T11:31:55.118Z,37.20
2018-03-02T11:34:22.718Z,37.60
2018-03-02T11:36:50.302Z,37.00
2018-03-02T11:39:17.905Z,37.80
2018-03-02T11:41:45.468Z,37.60
2018-03-02T11:44:13.067Z,37.80
2018-03-02T11:46:40.652Z,37.90
2018-03-02T11:49:08.258Z,36.70
2018-03-02T11:51:35.830Z,37.70
2018-03-02T11:54:03.422Z,37.70
2018-03-02T11:56:31.785Z,37.50
2018-03-02T11:58:59.386Z,37.40
2018-03-02T12:01:26.984Z,38.00
2018-03-02T12:03:54.571Z,36.70
2018-03-02T12:06:22.150Z,38.20
2018-03-02T12:08:49.763Z,36.90
2018-03-02T12:11:17.332Z,37.50
2018-03-02T12:13:44.931Z,37.20
2018-03-02T12:16:13.272Z,37.10
2018-03-02T12:18:40.878Z,37.00
2018-03-02T12:21:08.440Z,37.70
2018-03-02T12:23:36.805Z,37.50
2018-03-02T12:26:04.394Z,37.50
2018-03-02T12:28:31.978Z,36.90
2018-03-02T12:30:59.607Z,36.10
2018-03-02T12:33:27.934Z,36.90
2018-03-02T12:35:55.565Z,36.90
2018-03-02T12:38:23.146Z,37.50
2018-03-02T12:40:50.742Z,37.20
2018-03-02T12:43:18.314Z,37.00
2018-03-02T12:45:46.673Z,37.50
2018-03-02T12:48:14.245Z,37.50
2018-03-02T12:50:43.401Z,37.10
2018-03-02T12:53:10.969Z,37.00
2018-03-02T12:55:39.433Z,37.40
2018-03-02T12:58:07.034Z,37.30
2018-03-02T13:00:34.637Z,38.40
2018-03-02T13:03:02.222Z,36.70
2018-03-02T13:05:31.325Z,37.50
2018-03-02T13:07:58.891Z,37.40
2018-03-02T13:10:26.483Z,37.30
2018-03-02T13:12:54.044Z,37.30
2018-03-02T13:15:21.630Z,37.10
2018-03-02T13:17:49.196Z,37.20
2018-03-02T13:20:16.794Z,38.10
2018-03-02T13:22:44.362Z,36.60
2018-03-02T13:25:11.959Z,36.30
2018-03-02T13:27:51.241Z,35.50
2018-03-02T13:30:18.835Z,36.30
2018-03-02T13:32:58.108Z,37.00
2018-03-02T13:35:25.701Z,36.70
2018-03-02T13:37:54.029Z,36.60
2018-03-02T13:40:33.324Z,36.60
2018-03-02T13:43:01.690Z,36.70
2018-03-02T13:45:29.292Z,36.70
2018-03-02T13:51:08.698Z,36.90
2018-03-02T13:53:36.267Z,37.30
2018-03-02T13:56:04.629Z,36.70
2018-03-02T13:58:32.211Z,36.70
2018-03-02T14:01:00.399Z,38.50
2018-03-02T14:03:40.525Z,36.00
2018-03-02T14:06:09.346Z,37.40
2018-03-02T14:08:37.459Z,36.90
2018-03-02T14:11:05.093Z,37.30
2018-03-02T14:13:32.660Z,37.40
2018-03-02T14:16:00.245Z,37.40
2018-03-02T14:18:27.816Z,37.00
2018-03-02T14:20:55.389Z,36.30
2018-03-02T14:23:22.982Z,37.30
2018-03-02T14:25:50.544Z,37.00
2018-03-02T14:28:18.144Z,35.90
2018-03-02T14:30:45.713Z,36.70
2018-03-02T14:33:13.309Z,37.10
2018-03-02T14:35:40.884Z,37.40
2018-03-02T14:38:09.248Z,36.90
2018-03-02T14:40:37.089Z,36.90
2018-03-02T14:43:06.140Z,36.80
2018-03-02T14:45:33.710Z,36.80
2018-03-02T14:48:01.302Z,38.10
2018-03-02T14:50:29.003Z,38.20
2018-03-02T14:52:56.783Z,37.50
2018-03-02T14:55:24.359Z,36.60
2018-03-02T14:57:51.960Z,36.90
2018-03-02T15:00:19.606Z,36.90
2018-03-02T15:02:47.201Z,37.80
2018-03-02T15:05:14.770Z,37.80
2018-03-02T15:07:42.361Z,37.40
2018-03-02T15:10:09.933Z,37.60
2018-03-02T15:12:38.300Z,37.20
2018-03-02T15:15:05.869Z,37.20
2018-03-02T15:17:35.249Z,38.00
2018-03-02T15:20:02.826Z,37.90
2018-03-02T15:22:30.406Z,37.90
2018-03-02T15:24:58.762Z,36.80
2018-03-02T15:27:26.361Z,36.80
2018-03-02T15:29:54.137Z,36.90
2018-03-02T15:32:21.721Z,37.90
2018-03-02T15:34:49.314Z,37.90
2018-03-02T15:37:17.649Z,37.80
2018-03-02T15:39:45.236Z,37.70
2018-03-02T15:42:12.978Z,38.10
2018-03-02T15:44:40.592Z,37.40
2018-03-02T15:47:08.507Z,37.80
2018-03-02T15:49:37.176Z,38.20
2018-03-02T15:52:04.714Z,38.60
2018-03-02T15:54:32.311Z,38.10
2018-03-02T15:56:59.885Z,37.80
2018-03-02T15:59:27.478Z,38.50
2018-03-02T16:01:55.072Z,38.30
2018-03-02T16:04:22.694Z,38.10
2018-03-02T16:06:50.266Z,38.40
2018-03-02T16:09:17.929Z,38.60
2018-03-02T16:11:45.527Z,39.30
2018-03-02T16:14:13.924Z,39.60
2018-03-02T16:16:41.629Z,39.60
2018-03-02T16:19:09.253Z,41.10
2018-03-02T16:21:38.194Z,41.60
2018-03-02T16:24:06.057Z,41.60
2018-03-02T16:26:34.325Z,42.30
2018-03-02T16:29:01.936Z,42.70
2018-03-02T16:31:30.068Z,42.80
2018-03-02T16:33:57.668Z,42.60
2018-03-02T16:36:26.528Z,42.40
2018-03-02T16:38:54.457Z,43.10
2018-03-02T16:41:22.079Z,43.90
2018-03-02T16:43:50.527Z,44.40
2018-03-02T16:46:18.351Z,44.50
2018-03-02T16:48:46.766Z,44.90
2018-03-02T16:51:14.353Z,44.80
2018-03-02T16:53:41.927Z,44.30
2018-03-02T16:56:09.521Z,45.40
2018-03-02T16:58:37.107Z,45.20
2018-03-02T17:01:04.699Z,44.40
2018-03-02T17:03:32.279Z,45.30
2018-03-02T17:05:59.905Z,46.30
2018-03-02T17:08:27.473Z,47.30
2018-03-02T17:10:55.106Z,45.20
2018-03-02T17:13:22.867Z,46.20
2018-03-02T17:15:50.466Z,46.50
2018-03-02T17:18:18.045Z,47.70
2018-03-02T17:20:45.875Z,47.30
2018-03-02T17:23:14.246Z,48.70
2018-03-02T17:25:41.911Z,48.00
2018-03-02T17:28:10.254Z,50.50
2018-03-02T17:30:38.633Z,50.50
2018-03-02T17:33:06.206Z,49.50
2018-03-02T17:35:33.814Z,50.50
2018-03-02T17:38:02.154Z,50.60
2018-03-02T17:40:29.745Z,50.50
2018-03-02T17:42:57.322Z,50.70
2018-03-02T17:45:25.852Z,51.30
2018-03-02T17:47:53.806Z,51.30
2018-03-02T17:50:21.404Z,53.10
2018-03-02T17:52:48.985Z,51.60
2018-03-02T17:55:17.316Z,52.00
2018-03-02T17:57:44.905Z,51.90
2018-03-02T18:00:13.043Z,52.80
2018-03-02T18:02:40.651Z,52.30
2018-03-02T18:05:08.983Z,50.60
2018-03-02T18:07:36.600Z,50.40
2018-03-02T18:10:04.169Z,52.10
2018-03-02T18:12:31.796Z,52.40
2018-03-02T18:14:59.365Z,53.30
2018-03-02T18:17:26.967Z,50.40
2018-03-02T18:19:54.530Z,52.10
2018-03-02T18:22:22.144Z,54.40
2018-03-02T18:24:50.485Z,52.20
2018-03-02T18:27:18.526Z,52.20
2018-03-02T18:29:46.086Z,52.40
2018-03-02T18:32:13.685Z,52.20
2018-03-02T18:34:41.253Z,52.20
2018-03-02T18:37:08.845Z,52.80
2018-03-02T18:39:36.419Z,51.50
2018-03-02T18:42:04.012Z,54.00
2018-03-02T18:44:31.589Z,53.80
2018-03-02T18:46:59.197Z,51.60
2018-03-02T18:49:26.770Z,55.00
2018-03-02T18:51:54.365Z,54.50
2018-03-02T18:54:21.955Z,53.70
2018-03-02T18:56:49.552Z,53.50
2018-03-02T18:59:17.125Z,53.00
2018-03-02T19:01:44.738Z,53.00
2018-03-02T19:04:12.318Z,52.50
2018-03-02T19:06:39.886Z,52.60
2018-03-02T19:09:07.522Z,52.60
2018-03-02T19:11:35.836Z,53.20
2018-03-02T19:14:03.476Z,53.10
2018-03-02T19:16:31.106Z,54.10
2018-03-02T19:18:59.471Z,53.40
2018-03-02T19:21:27.810Z,53.70
2018-03-02T19:23:55.422Z,53.70
2018-03-02T19:26:23.018Z,53.80
2018-03-02T19:28:50.600Z,56.20
2018-03-02T19:31:18.173Z,56.40
2018-03-02T19:33:45.771Z,54.30
2018-03-02T19:36:13.349Z,54.30
2018-03-02T19:38:40.936Z,55.50
2018-03-02T19:41:08.510Z,52.30
2018-03-02T19:43:36.132Z,54.80
2018-03-02T19:46:03.704Z,54.20
2018-03-02T19:48:31.309Z,54.60
2018-03-02T19:50:58.881Z,55.20
2018-03-02T19:53:26.474Z,54.70
2018-03-02T19:55:54.040Z,54.00
2018-03-02T19:58:21.629Z,54.20
2018-03-02T20:00:49.196Z,56.30
2018-03-02T20:03:16.788Z,56.50
2018-03-02T20:05:44.638Z,54.70
2018-03-02T20:08:12.521Z,56.10
2018-03-02T20:10:40.237Z,53.50
2018-03-02T20:13:11.634Z,55.90
2018-03-02T20:15:39.357Z,56.10
2018-03-02T20:18:08.618Z,58.90
2018-03-02T20:20:36.368Z,58.80
2018-03-02T20:23:04.084Z,55.10
2018-03-02T20:25:32.461Z,55.00
2018-03-02T20:28:00.810Z,57.90
2018-03-02T20:30:28.423Z,57.90
2018-03-02T20:32:56.078Z,58.90
2018-03-02T20:35:23.685Z,57.30
2018-03-02T20:37:51.254Z,58.40
2018-03-02T20:40:18.849Z,56.20
2018-03-02T20:42:46.420Z,55.60
2018-03-02T20:45:14.042Z,55.90
2018-03-02T20:47:41.613Z,56.90
2018-03-02T20:50:09.213Z,56.80
2018-03-02T20:52:36.823Z,60.20
2018-03-02T20:55:04.399Z,56.10
2018-03-02T20:57:32.741Z,57.00
2018-03-02T21:00:00.342Z,56.90
2018-03-02T21:02:27.918Z,55.40
2018-03-02T21:04:55.518Z,58.50
2018-03-02T21:07:23.089Z,55.40
2018-03-02T21:09:50.682Z,55.70
2018-03-02T21:12:19.027Z,57.70
2018-03-02T21:14:46.620Z,58.30
2018-03-02T21:17:14.959Z,59.80
2018-03-02T21:19:42.553Z,59.70
2018-03-02T21:22:10.121Z,55.00
2018-03-02T21:24:37.722Z,56.10
2018-03-02T21:27:05.288Z,55.40
2018-03-02T21:29:32.909Z,56.90
2018-03-02T21:32:00.480Z,58.10
2018-03-02T21:34:28.117Z,58.20
2018-03-02T21:36:55.665Z,58.40
2018-03-02T21:39:23.282Z,59.00
2018-03-02T21:41:50.856Z,57.00
2018-03-02T21:44:18.425Z,57.10
2018-03-02T21:46:46.029Z,57.00
2018-03-02T21:49:13.602Z,56.80
2018-03-02T21:51:41.198Z,56.80
2018-03-02T21:54:08.773Z,56.70
2018-03-02T21:56:36.366Z,57.30
2018-03-02T21:59:03.935Z,55.60
2018-03-02T22:01:31.524Z,58.40
2018-03-02T22:03:59.103Z,57.80
2018-03-02T22:06:26.700Z,58.90
2018-03-02T22:08:54.273Z,57.40
2018-03-02T22:11:21.870Z,60.20
2018-03-02T22:13:49.446Z,59.30
2018-03-02T22:16:17.805Z,57.50
2018-03-02T22:18:45.381Z,57.00
2018-03-02T22:21:13.736Z,57.90
2018-03-02T22:23:41.305Z,57.30
2018-03-02T22:26:08.918Z,59.00
2018-03-02T22:28:36.482Z,56.20
2018-03-02T22:31:04.069Z,55.70
2018-03-02T22:33:31.642Z,57.90
2018-03-02T22:35:59.229Z,57.90
2018-03-02T22:38:26.806Z,57.80
2018-03-02T22:40:54.400Z,58.30
2018-03-02T22:43:21.967Z,58.80
2018-03-02T22:45:49.570Z,57.90
2018-03-02T22:48:17.136Z,57.30
2018-03-02T22:50:44.738Z,57.50
2018-03-02T22:53:12.309Z,57.20
2018-03-02T22:55:39.880Z,57.00
2018-03-02T22:58:07.464Z,58.90
2018-03-02T23:00:35.798Z,59.30
2018-03-02T23:03:03.394Z,59.30
2018-03-02T23:05:30.957Z,58.00
2018-03-02T23:07:59.321Z,57.20
2018-03-02T23:10:27.658Z,58.50
2018-03-02T23:12:55.257Z,58.50
2018-03-02T23:15:23.598Z,57.40
2018-03-02T23:17:51.189Z,57.40
2018-03-02T23:20:18.786Z,59.50
2018-03-02T23:22:46.377Z,58.40
2018-03-02T23:25:13.957Z,56.20
2018-03-02T23:27:41.553Z,57.00
2018-03-02T23:30:09.134Z,59.80
2018-03-02T23:32:36.724Z,58.90
2018-03-02T23:35:04.322Z,61.70
2018-03-02T23:37:32.681Z,56.10
2018-03-02T23:40:00.248Z,56.00
2018-03-02T23:42:27.869Z,58.00
2018-03-02T23:44:55.441Z,58.80
2018-03-02T23:47:23.034Z,57.40
2018-03-02T23:49:50.605Z,59.00
2018-03-02T23:52:18.197Z,58.60
2018-03-02T23:54:45.783Z,57.70
2018-03-02T23:57:13.377Z,59.40
2018-03-02T23:59:43.157Z,60.70
